YV1419 SVVG-SVVL
Flight info
| Callsign | YV1419 |
|---|---|
| Flight time | 0h 29m |
| Altitude | 7500 |
| Route | DCT |
| Aircraft | C208/L-SDC/C |
Departure
| Time | 2026-05-05 23:44 |
|---|---|
| Airport | Juan Pablo Pérez Alfonso Airport (SVVG) |
Arrival
| Time | 2026-05-06 00:13 |
|---|---|
| Airport | Dr. Antonio Nicolás Briceño Airport (SVVL) |
| Time | Latitude | Longitude | Altitude | Speed | Heading |
|---|---|---|---|---|---|
| 2026-05-05 23:33 | 8.62324 | -71.66262 | 278 ft | 0 kts | 173° |
| 2026-05-05 23:41 | 8.62327 | -71.66276 | 278 ft | 7 kts | 346° |
| 2026-05-05 23:41 | 8.62391 | -71.66297 | 278 ft | 14 kts | 305° |
| 2026-05-05 23:41 | 8.62489 | -71.66333 | 279 ft | 14 kts | 357° |
| 2026-05-05 23:41 | 8.62540 | -71.66362 | 279 ft | 14 kts | 267° |
| 2026-05-05 23:42 | 8.62509 | -71.66598 | 278 ft | 55 kts | 262° |
| 2026-05-05 23:42 | 8.62439 | -71.67094 | 281 ft | 85 kts | 262° |
| 2026-05-05 23:42 | 8.62477 | -71.67664 | 427 ft | 81 kts | 303° |
| 2026-05-05 23:42 | 8.62979 | -71.67869 | 514 ft | 86 kts | 17° |
| 2026-05-05 23:43 | 8.63493 | -71.67563 | 632 ft | 86 kts | 33° |
| 2026-05-05 23:43 | 8.64001 | -71.67243 | 734 ft | 91 kts | 32° |
| 2026-05-05 23:43 | 8.64601 | -71.66855 | 745 ft | 113 kts | 32° |
| 2026-05-05 23:43 | 8.65318 | -71.66389 | 810 ft | 130 kts | 32° |
| 2026-05-05 23:44 | 8.66113 | -71.65872 | 895 ft | 141 kts | 33° |
| 2026-05-05 23:44 | 8.66957 | -71.65318 | 985 ft | 148 kts | 34° |
| 2026-05-05 23:44 | 8.67792 | -71.64675 | 1075 ft | 153 kts | 39° |
| 2026-05-05 23:44 | 8.68612 | -71.63990 | 1160 ft | 156 kts | 39° |
| 2026-05-05 23:45 | 8.69447 | -71.63281 | 1247 ft | 158 kts | 41° |
| 2026-05-05 23:45 | 8.70252 | -71.62520 | 1321 ft | 159 kts | 44° |
| 2026-05-05 23:45 | 8.71024 | -71.61720 | 1400 ft | 159 kts | 47° |
| 2026-05-05 23:45 | 8.71776 | -71.60891 | 1470 ft | 160 kts | 47° |
| 2026-05-05 23:46 | 8.72529 | -71.60061 | 1552 ft | 161 kts | 47° |
| 2026-05-05 23:46 | 8.73284 | -71.59227 | 1630 ft | 161 kts | 47° |
| 2026-05-05 23:46 | 8.74034 | -71.58386 | 1704 ft | 161 kts | 49° |
| 2026-05-05 23:46 | 8.74776 | -71.57539 | 1779 ft | 161 kts | 49° |
| 2026-05-05 23:47 | 8.75511 | -71.56686 | 1854 ft | 162 kts | 50° |
| 2026-05-05 23:47 | 8.76241 | -71.55821 | 1930 ft | 161 kts | 50° |
| 2026-05-05 23:47 | 8.76971 | -71.54957 | 2006 ft | 162 kts | 50° |
| 2026-05-05 23:47 | 8.77679 | -71.54076 | 2081 ft | 161 kts | 51° |
| 2026-05-05 23:48 | 8.78380 | -71.53190 | 2156 ft | 161 kts | 52° |
| 2026-05-05 23:48 | 8.79069 | -71.52301 | 2227 ft | 160 kts | 52° |
| 2026-05-05 23:48 | 8.79750 | -71.51410 | 2304 ft | 159 kts | 52° |
| 2026-05-05 23:48 | 8.80432 | -71.50520 | 2379 ft | 161 kts | 52° |
| 2026-05-05 23:49 | 8.81106 | -71.49635 | 2454 ft | 161 kts | 52° |
| 2026-05-05 23:49 | 8.81791 | -71.48739 | 2525 ft | 161 kts | 52° |
| 2026-05-05 23:49 | 8.82482 | -71.47840 | 2603 ft | 161 kts | 52° |
| 2026-05-05 23:49 | 8.83173 | -71.46941 | 2679 ft | 162 kts | 52° |
| 2026-05-05 23:50 | 8.83865 | -71.46037 | 2750 ft | 162 kts | 52° |
| 2026-05-05 23:50 | 8.84544 | -71.45125 | 2827 ft | 162 kts | 54° |
| 2026-05-05 23:50 | 8.85202 | -71.44204 | 2900 ft | 162 kts | 54° |
| 2026-05-05 23:50 | 8.85863 | -71.43278 | 2976 ft | 162 kts | 54° |
| 2026-05-05 23:51 | 8.86526 | -71.42351 | 3052 ft | 163 kts | 54° |
| 2026-05-05 23:51 | 8.87191 | -71.41420 | 3132 ft | 163 kts | 54° |
| 2026-05-05 23:51 | 8.87855 | -71.40489 | 3208 ft | 163 kts | 54° |
| 2026-05-05 23:51 | 8.88530 | -71.39553 | 3285 ft | 165 kts | 54° |
| 2026-05-05 23:52 | 8.89201 | -71.38619 | 3357 ft | 164 kts | 54° |
| 2026-05-05 23:52 | 8.89587 | -71.38080 | 3399 ft | 163 kts | 54° |
| 2026-05-05 23:52 | 8.90253 | -71.37151 | 3473 ft | 163 kts | 54° |
| 2026-05-05 23:52 | 8.90920 | -71.36221 | 3553 ft | 163 kts | 54° |
| 2026-05-05 23:53 | 8.91585 | -71.35295 | 3621 ft | 163 kts | 54° |
| 2026-05-05 23:53 | 8.92250 | -71.34372 | 3698 ft | 163 kts | 54° |
| 2026-05-05 23:53 | 8.92907 | -71.33461 | 3775 ft | 163 kts | 54° |
| 2026-05-05 23:53 | 8.93571 | -71.32539 | 3846 ft | 162 kts | 55° |
| 2026-05-05 23:54 | 8.94224 | -71.31608 | 3923 ft | 163 kts | 55° |
| 2026-05-05 23:54 | 8.94871 | -71.30673 | 3999 ft | 162 kts | 56° |
| 2026-05-05 23:54 | 8.95506 | -71.29729 | 4075 ft | 162 kts | 56° |
| 2026-05-05 23:54 | 8.96142 | -71.28787 | 4152 ft | 162 kts | 56° |
| 2026-05-05 23:55 | 8.96779 | -71.27840 | 4226 ft | 164 kts | 57° |
| 2026-05-05 23:55 | 8.97420 | -71.26884 | 4300 ft | 164 kts | 57° |
| 2026-05-05 23:55 | 8.98041 | -71.25925 | 4371 ft | 163 kts | 58° |
| 2026-05-05 23:55 | 8.98645 | -71.24959 | 4449 ft | 162 kts | 58° |
| 2026-05-05 23:56 | 8.99247 | -71.23998 | 4523 ft | 161 kts | 58° |
| 2026-05-05 23:56 | 8.99846 | -71.23040 | 4597 ft | 161 kts | 58° |
| 2026-05-05 23:56 | 9.00445 | -71.22083 | 4672 ft | 161 kts | 58° |
| 2026-05-05 23:56 | 9.01044 | -71.21127 | 4748 ft | 161 kts | 58° |
| 2026-05-05 23:57 | 9.01635 | -71.20185 | 4824 ft | 161 kts | 58° |
| 2026-05-05 23:57 | 9.02237 | -71.19228 | 4901 ft | 161 kts | 58° |
| 2026-05-05 23:57 | 9.02839 | -71.18273 | 4976 ft | 161 kts | 58° |
| 2026-05-05 23:57 | 9.03436 | -71.17323 | 5046 ft | 160 kts | 58° |
| 2026-05-05 23:58 | 9.04035 | -71.16375 | 5127 ft | 159 kts | 58° |
| 2026-05-05 23:58 | 9.04633 | -71.15434 | 5203 ft | 160 kts | 58° |
| 2026-05-05 23:58 | 9.05225 | -71.14489 | 5275 ft | 159 kts | 59° |
| 2026-05-05 23:58 | 9.05828 | -71.13557 | 5348 ft | 159 kts | 57° |
| 2026-05-05 23:59 | 9.06448 | -71.12625 | 5427 ft | 160 kts | 57° |
| 2026-05-05 23:59 | 9.07077 | -71.11697 | 5503 ft | 160 kts | 56° |
| 2026-05-05 23:59 | 9.07710 | -71.10767 | 5579 ft | 162 kts | 56° |
| 2026-05-05 23:59 | 9.08351 | -71.09839 | 5652 ft | 160 kts | 56° |
| 2026-05-06 00:00 | 9.08987 | -71.08913 | 5727 ft | 161 kts | 56° |
| 2026-05-06 00:00 | 9.09624 | -71.07987 | 5802 ft | 159 kts | 56° |
| 2026-05-06 00:00 | 9.10257 | -71.07067 | 5877 ft | 160 kts | 56° |
| 2026-05-06 00:00 | 9.10894 | -71.06138 | 5952 ft | 161 kts | 56° |
| 2026-05-06 00:01 | 9.11528 | -71.05227 | 6024 ft | 160 kts | 56° |
| 2026-05-06 00:01 | 9.12167 | -71.04306 | 6099 ft | 160 kts | 56° |
| 2026-05-06 00:01 | 9.12807 | -71.03381 | 6176 ft | 161 kts | 56° |
| 2026-05-06 00:01 | 9.13448 | -71.02446 | 6248 ft | 161 kts | 56° |
| 2026-05-06 00:02 | 9.14085 | -71.01518 | 6322 ft | 160 kts | 55° |
| 2026-05-06 00:02 | 9.14724 | -71.00583 | 6379 ft | 162 kts | 57° |
| 2026-05-06 00:02 | 9.15341 | -70.99626 | 6428 ft | 163 kts | 58° |
| 2026-05-06 00:02 | 9.15950 | -70.98665 | 6477 ft | 162 kts | 59° |
| 2026-05-06 00:03 | 9.16540 | -70.97692 | 6530 ft | 161 kts | 60° |
| 2026-05-06 00:03 | 9.17103 | -70.96705 | 6580 ft | 162 kts | 61° |
| 2026-05-06 00:03 | 9.17654 | -70.95717 | 6633 ft | 161 kts | 63° |
| 2026-05-06 00:03 | 9.18193 | -70.94718 | 6680 ft | 162 kts | 62° |
| 2026-05-06 00:04 | 9.18741 | -70.93719 | 6730 ft | 162 kts | 62° |
| 2026-05-06 00:04 | 9.19289 | -70.92723 | 6779 ft | 162 kts | 62° |
| 2026-05-06 00:04 | 9.19826 | -70.91743 | 6832 ft | 161 kts | 62° |
| 2026-05-06 00:04 | 9.20358 | -70.90746 | 6876 ft | 161 kts | 63° |
| 2026-05-06 00:05 | 9.21409 | -70.88740 | 6980 ft | 161 kts | 63° |
| 2026-05-06 00:05 | 9.21929 | -70.87745 | 7029 ft | 160 kts | 63° |
| 2026-05-06 00:05 | 9.22451 | -70.86751 | 7075 ft | 160 kts | 64° |
| 2026-05-06 00:06 | 9.22944 | -70.85739 | 7128 ft | 160 kts | 65° |
| 2026-05-06 00:06 | 9.23438 | -70.84731 | 7178 ft | 160 kts | 65° |
| 2026-05-06 00:06 | 9.23927 | -70.83716 | 7228 ft | 160 kts | 65° |
| 2026-05-06 00:06 | 9.24414 | -70.82704 | 7276 ft | 160 kts | 65° |
| 2026-05-06 00:07 | 9.24906 | -70.81692 | 7332 ft | 161 kts | 65° |
| 2026-05-06 00:07 | 9.25399 | -70.80676 | 7377 ft | 160 kts | 65° |
| 2026-05-06 00:07 | 9.25880 | -70.79668 | 7423 ft | 158 kts | 67° |
| 2026-05-06 00:07 | 9.26286 | -70.78654 | 7477 ft | 157 kts | 70° |
| 2026-05-06 00:08 | 9.26683 | -70.77624 | 7484 ft | 158 kts | 70° |
| 2026-05-06 00:08 | 9.27071 | -70.76581 | 7491 ft | 159 kts | 72° |
| 2026-05-06 00:08 | 9.27385 | -70.75502 | 7482 ft | 160 kts | 75° |
| 2026-05-06 00:08 | 9.27679 | -70.74432 | 7500 ft | 156 kts | 78° |
| 2026-05-06 00:09 | 9.27886 | -70.73336 | 7497 ft | 162 kts | 82° |
| 2026-05-06 00:09 | 9.28048 | -70.72189 | 7497 ft | 167 kts | 82° |
| 2026-05-06 00:09 | 9.28217 | -70.71024 | 7476 ft | 170 kts | 82° |
| 2026-05-06 00:09 | 9.28396 | -70.69812 | 7331 ft | 178 kts | 84° |
| 2026-05-06 00:10 | 9.28583 | -70.68541 | 7147 ft | 184 kts | 83° |
| 2026-05-06 00:10 | 9.28791 | -70.67259 | 6991 ft | 185 kts | 81° |
| 2026-05-06 00:10 | 9.28996 | -70.65972 | 6787 ft | 185 kts | 82° |
| 2026-05-06 00:10 | 9.29194 | -70.64698 | 6529 ft | 174 kts | 82° |
| 2026-05-06 00:11 | 9.29363 | -70.63584 | 6250 ft | 150 kts | 82° |
| 2026-05-06 00:11 | 9.29512 | -70.62590 | 5913 ft | 140 kts | 84° |
| 2026-05-06 00:11 | 9.29722 | -70.61670 | 5745 ft | 121 kts | 71° |
| 2026-05-06 00:11 | 9.30090 | -70.60999 | 5355 ft | 107 kts | 66° |
| 2026-05-06 00:12 | 9.30558 | -70.60473 | 4790 ft | 98 kts | 68° |
| 2026-05-06 00:12 | 9.31031 | -70.59971 | 4173 ft | 97 kts | 70° |
| 2026-05-06 00:12 | 9.31531 | -70.59494 | 3421 ft | 100 kts | 62° |
| 2026-05-06 00:12 | 9.32095 | -70.59097 | 2787 ft | 98 kts | 49° |
| 2026-05-06 00:13 | 9.32722 | -70.58850 | 2247 ft | 94 kts | 38° |
| 2026-05-06 00:13 | 9.33323 | -70.58671 | 1951 ft | 87 kts | 20° |
| 2026-05-06 00:13 | 9.33819 | -70.58514 | 1896 ft | 59 kts | 16° |
| 2026-05-06 00:13 | 9.33978 | -70.58512 | 1888 ft | 12 kts | 288° |
| 2026-05-06 00:14 | 9.34002 | -70.58560 | 1882 ft | 5 kts | 315° |
| 2026-05-06 00:14 | 9.34061 | -70.58568 | 1883 ft | 15 kts | 1° |
| 2026-05-06 00:14 | 9.34056 | -70.58597 | 1884 ft | 1 kts | 193° |